createdAt,value
2022-08-26T00:02:10.225Z,100045.25
2022-08-26T00:05:11.678Z,100045.97
2022-08-26T00:08:15.395Z,100048.34
2022-08-26T00:11:26.265Z,100045.59
2022-08-26T00:14:30.133Z,100046.78
2022-08-26T00:17:32.764Z,100043.34
2022-08-26T00:20:34.879Z,100044.66
2022-08-26T00:23:37.166Z,100038.25
2022-08-26T00:26:39.258Z,100039.84
2022-08-26T00:29:42.866Z,100038.47
2022-08-26T00:32:44.572Z,100038.06
2022-08-26T00:35:48.030Z,100038.94
2022-08-26T00:38:50.011Z,100039.63
2022-08-26T00:41:51.421Z,100039.34
2022-08-26T00:44:53.782Z,100038.09
2022-08-26T00:48:03.116Z,100035.56
2022-08-26T00:51:29.672Z,100034.84
2022-08-26T00:54:35.674Z,100037.66
2022-08-26T00:57:37.806Z,100032.56
2022-08-26T01:00:39.263Z,100046.28
2022-08-26T01:03:41.944Z,100037.66
2022-08-26T01:06:44.374Z,100037.09
2022-08-26T01:09:46.322Z,100036.66
2022-08-26T01:12:52.369Z,100037.06
2022-08-26T01:15:57.384Z,100045.13
2022-08-26T01:19:13.828Z,100036.78
2022-08-26T01:22:50.288Z,100033.66
2022-08-26T01:25:59.520Z,100034.50
2022-08-26T01:29:05.257Z,100039.03
2022-08-26T01:32:10.772Z,100038.91
2022-08-26T01:35:12.217Z,100040.19
2022-08-26T01:38:15.818Z,100036.94
2022-08-26T01:41:20.008Z,100040.75
2022-08-26T01:44:38.661Z,100040.47
2022-08-26T01:47:42.564Z,100035.94
2022-08-26T01:50:45.793Z,100033.97
2022-08-26T01:53:47.472Z,100042.44
2022-08-26T01:56:50.660Z,100046.84
2022-08-26T01:59:56.357Z,100043.84
2022-08-26T02:03:16.449Z,100054.06
2022-08-26T02:06:19.681Z,100056.63
2022-08-26T02:09:22.122Z,100053.03
2022-08-26T02:12:25.775Z,100052.13
2022-08-26T02:15:27.534Z,100053.16
2022-08-26T02:18:33.048Z,100052.47
2022-08-26T02:21:35.186Z,100065.34
2022-08-26T02:24:54.318Z,100068.84
2022-08-26T02:27:56.687Z,100062.91
2022-08-26T02:30:58.134Z,100058.97
2022-08-26T02:34:12.351Z,100054.56
2022-08-26T02:37:14.440Z,100057.31
2022-08-26T02:40:24.044Z,100048.13
2022-08-26T02:43:31.637Z,100051.53
2022-08-26T02:46:34.632Z,100058.25
2022-08-26T02:49:41.932Z,100055.03
2022-08-26T02:52:45.895Z,100059.25
2022-08-26T02:55:49.416Z,100057.25
2022-08-26T02:58:51.431Z,100056.47
2022-08-26T03:01:56.111Z,100052.88
2022-08-26T03:05:01.885Z,100057.06
2022-08-26T03:08:04.194Z,100055.97
2022-08-26T03:11:05.926Z,100050.63
2022-08-26T03:14:07.916Z,100049.22
2022-08-26T03:17:09.626Z,100047.19
2022-08-26T03:20:11.692Z,100054.38
2022-08-26T03:23:15.140Z,100059.22
2022-08-26T03:26:16.837Z,100057.66
2022-08-26T03:29:36.842Z,100054.41
2022-08-26T03:32:39.134Z,100058.25
2022-08-26T03:35:45.035Z,100059.31
2022-08-26T03:38:46.496Z,100065.66
2022-08-26T03:41:47.927Z,100069.06
2022-08-26T03:44:49.905Z,100058.25
2022-08-26T03:47:51.890Z,100065.75
2022-08-26T03:50:54.493Z,100061.06
2022-08-26T03:53:57.175Z,100055.38
2022-08-26T03:56:58.706Z,100057.28
2022-08-26T04:00:00.544Z,100058.63
2022-08-26T04:03:02.042Z,100067.44
2022-08-26T04:06:03.993Z,100062.91
2022-08-26T04:09:13.292Z,100066.91
2022-08-26T04:12:14.796Z,100070.03
2022-08-26T04:15:17.776Z,100070.31
2022-08-26T04:18:19.599Z,100074.22
2022-08-26T04:21:21.417Z,100065.81
2022-08-26T04:24:25.011Z,100067.78
2022-08-26T04:27:26.516Z,100074.53
2022-08-26T04:30:28.190Z,100077.75
2022-08-26T04:33:32.549Z,100069.69
2022-08-26T04:36:34.805Z,100065.97
2022-08-26T04:39:37.212Z,100067.16
2022-08-26T04:42:38.643Z,100070.09
2022-08-26T04:45:41.537Z,100073.69
2022-08-26T04:48:42.961Z,100071.19
2022-08-26T04:51:44.389Z,100070.03
2022-08-26T04:54:45.839Z,100072.28
2022-08-26T04:57:47.453Z,100071.34
2022-08-26T05:00:51.489Z,100081.03
2022-08-26T05:03:52.942Z,100070.16
2022-08-26T05:06:59.239Z,100083.31
2022-08-26T05:10:04.679Z,100083.75
2022-08-26T05:13:14.277Z,100077.84
2022-08-26T05:16:17.278Z,100077.44
2022-08-26T05:19:19.521Z,100082.13
2022-08-26T05:22:21.284Z,100078.47
2022-08-26T05:25:23.766Z,100084.28
2022-08-26T05:28:30.052Z,100085.16
2022-08-26T05:31:33.492Z,100078.88
2022-08-26T05:34:34.972Z,100088.50
2022-08-26T05:37:38.391Z,100088.50
2022-08-26T05:40:42.964Z,100092.72
2022-08-26T05:43:44.529Z,100095.84
2022-08-26T05:46:46.054Z,100094.19
2022-08-26T05:49:51.571Z,100098.72
2022-08-26T05:52:53.255Z,100097.88
2022-08-26T05:55:55.715Z,100101.72
2022-08-26T05:58:58.373Z,100102.16
2022-08-26T06:02:02.032Z,100093.38
2022-08-26T06:05:03.656Z,100104.28
2022-08-26T06:08:13.929Z,100103.00
2022-08-26T06:11:19.048Z,100108.69
2022-08-26T06:14:20.469Z,100115.03
2022-08-26T06:17:21.919Z,100115.53
2022-08-26T06:20:24.906Z,100125.59
2022-08-26T06:23:48.358Z,100135.63
2022-08-26T06:26:52.798Z,100133.25
2022-08-26T06:29:54.692Z,100137.50
2022-08-26T06:32:56.145Z,100131.13
2022-08-26T06:35:58.378Z,100133.00
2022-08-26T06:39:04.040Z,100131.91
2022-08-26T06:42:06.177Z,100126.97
2022-08-26T06:45:08.945Z,100129.09
2022-08-26T06:48:10.870Z,100133.06
2022-08-26T06:51:15.579Z,100132.09
2022-08-26T06:54:17.624Z,100132.13
2022-08-26T06:57:19.020Z,100127.19
2022-08-26T07:00:21.650Z,100132.56
2022-08-26T07:03:23.108Z,100130.84
2022-08-26T07:06:25.580Z,100142.63
2022-08-26T07:09:30.246Z,100142.75
2022-08-26T07:12:31.933Z,100138.94
2022-08-26T07:15:35.704Z,100133.94
2022-08-26T07:18:38.015Z,100139.91
2022-08-26T07:21:44.540Z,100136.22
2022-08-26T07:24:45.988Z,100139.31
2022-08-26T07:27:54.335Z,100139.75
2022-08-26T07:30:56.027Z,100143.22
2022-08-26T07:33:59.650Z,100142.44
2022-08-26T07:37:02.161Z,100135.38
2022-08-26T07:40:04.889Z,100135.72
2022-08-26T07:43:07.730Z,100145.41
2022-08-26T07:46:14.457Z,100141.13
2022-08-26T07:49:18.943Z,100151.00
2022-08-26T07:52:25.338Z,100145.13
2022-08-26T07:55:28.888Z,100144.38
2022-08-26T07:58:30.355Z,100146.94
2022-08-26T08:01:33.109Z,100144.63
2022-08-26T08:04:35.284Z,100147.09
2022-08-26T08:07:44.964Z,100138.69
2022-08-26T08:10:48.732Z,100139.66
2022-08-26T08:13:55.968Z,100137.56
2022-08-26T08:16:58.094Z,100142.56
2022-08-26T08:19:59.942Z,100134.06
2022-08-26T08:23:04.117Z,100132.84
2022-08-26T08:26:09.058Z,100134.16
2022-08-26T08:29:10.534Z,100122.72
2022-08-26T08:32:11.968Z,100132.34
2022-08-26T08:35:18.688Z,100141.09
2022-08-26T08:38:20.208Z,100136.75
2022-08-26T08:41:38.534Z,100132.47
2022-08-26T08:44:44.472Z,100133.03
2022-08-26T08:47:57.584Z,100128.78
2022-08-26T08:51:16.609Z,100131.00
2022-08-26T08:54:19.878Z,100132.38
2022-08-26T08:57:53.810Z,100127.72
2022-08-26T09:01:02.920Z,100127.09
2022-08-26T09:04:32.526Z,100120.13
2022-08-26T09:07:39.592Z,100124.72
2022-08-26T09:10:46.990Z,100120.38
2022-08-26T09:13:52.353Z,100123.47
2022-08-26T09:17:10.187Z,100116.72
2022-08-26T09:20:25.117Z,100125.38
2022-08-26T09:23:27.048Z,100122.69
2022-08-26T09:26:40.903Z,100114.09
2022-08-26T09:29:44.729Z,100110.09
2022-08-26T09:32:58.406Z,100105.41
2022-08-26T09:36:22.861Z,100108.44
2022-08-26T09:39:38.151Z,100104.19
2022-08-26T09:42:39.641Z,100103.84
2022-08-26T09:45:51.123Z,100097.94
2022-08-26T09:48:54.416Z,100106.91
2022-08-26T09:52:23.617Z,100101.50
2022-08-26T09:55:26.160Z,100089.81
2022-08-26T09:58:40.300Z,100084.75
2022-08-26T10:01:44.983Z,100080.63
2022-08-26T10:04:54.007Z,100075.19
2022-08-26T10:07:56.845Z,100063.88
2022-08-26T10:11:11.112Z,100060.25
2022-08-26T10:14:28.601Z,100055.16
2022-08-26T10:17:37.855Z,100051.66
2022-08-26T10:20:50.140Z,100037.47
2022-08-26T10:23:57.046Z,100035.16
2022-08-26T10:27:10.463Z,100036.97
2022-08-26T10:30:19.398Z,100032.78
2022-08-26T10:33:21.082Z,100038.03
2022-08-26T10:37:10.634Z,100036.56
2022-08-26T10:40:13.755Z,100043.16
2022-08-26T10:43:21.442Z,100035.31
2022-08-26T10:46:28.413Z,100030.97
2022-08-26T10:49:29.908Z,100039.19
2022-08-26T10:52:57.841Z,100030.75
2022-08-26T10:56:18.740Z,100027.78
2022-08-26T10:59:53.405Z,100020.72
2022-08-26T11:03:21.655Z,100021.59
2022-08-26T11:06:27.826Z,100022.72
2022-08-26T11:09:47.169Z,100011.66
2022-08-26T11:13:01.660Z,100014.19
2022-08-26T11:16:03.104Z,100002.09
2022-08-26T11:19:09.408Z,100011.56
2022-08-26T11:22:27.044Z,99998.38
2022-08-26T11:25:30.909Z,99997.97
2022-08-26T11:28:40.568Z,99990.09
2022-08-26T11:31:48.821Z,99985.00
2022-08-26T11:35:04.516Z,99990.91
2022-08-26T11:38:29.499Z,99976.84
2022-08-26T11:41:33.223Z,99971.19
2022-08-26T11:44:41.190Z,99958.06
2022-08-26T11:47:50.940Z,99960.84
2022-08-26T11:51:05.086Z,99956.44
2022-08-26T11:54:30.463Z,99950.75
2022-08-26T11:57:46.907Z,99948.06
2022-08-26T12:00:57.819Z,99949.03
2022-08-26T12:04:00.392Z,99954.28
2022-08-26T12:07:03.996Z,99951.28
2022-08-26T12:10:10.766Z,99948.81
2022-08-26T12:13:26.268Z,99939.13
2022-08-26T12:16:31.191Z,99932.06
2022-08-26T12:19:33.719Z,99926.00
2022-08-26T12:22:36.033Z,99920.41
2022-08-26T12:25:39.289Z,99921.47
2022-08-26T12:29:20.004Z,99916.63
2022-08-26T12:32:24.801Z,99915.41
2022-08-26T12:35:28.644Z,99918.53
2022-08-26T12:38:35.042Z,99912.81
2022-08-26T12:41:52.977Z,99907.09
2022-08-26T12:45:04.326Z,99908.41
2022-08-26T12:48:08.805Z,99907.06
2022-08-26T12:51:42.104Z,99912.69
2022-08-26T12:55:02.398Z,99913.84
2022-08-26T12:58:20.114Z,99912.66
2022-08-26T13:01:23.427Z,99903.25
2022-08-26T13:04:34.697Z,99890.41
2022-08-26T13:07:36.537Z,99880.47
2022-08-26T13:10:40.369Z,99876.94
2022-08-26T13:13:41.846Z,99866.25
2022-08-26T13:16:44.261Z,99854.91
2022-08-26T13:19:45.845Z,99848.19
2022-08-26T13:22:48.643Z,99840.44
2022-08-26T13:26:00.079Z,99844.59
2022-08-26T13:29:02.504Z,99831.97
2022-08-26T13:32:06.400Z,99832.66
2022-08-26T13:35:08.119Z,99832.19
2022-08-26T13:38:14.702Z,99842.50
2022-08-26T13:41:34.530Z,99842.28
2022-08-26T13:44:38.802Z,99844.38
2022-08-26T13:47:40.221Z,99836.19
2022-08-26T13:50:41.859Z,99842.28
2022-08-26T13:53:43.326Z,99842.94
2022-08-26T13:56:45.072Z,99843.38
2022-08-26T13:59:46.484Z,99847.75
2022-08-26T14:02:48.457Z,99845.41
2022-08-26T14:05:51.242Z,99825.31
2022-08-26T14:08:52.749Z,99830.88
2022-08-26T14:11:55.146Z,99828.28
2022-08-26T14:14:57.922Z,99835.47
2022-08-26T14:18:02.435Z,99820.78
2022-08-26T14:21:06.870Z,99804.25
2022-08-26T14:24:08.327Z,99828.78
2022-08-26T14:27:10.715Z,99817.00
2022-08-26T14:30:12.406Z,99824.56
2022-08-26T14:33:15.013Z,99825.00
2022-08-26T14:36:28.596Z,99820.63
2022-08-26T14:39:30.160Z,99820.66
2022-08-26T14:42:32.440Z,99809.28
2022-08-26T14:48:46.679Z,99810.16
2022-08-26T14:51:48.144Z,99815.03
2022-08-26T14:54:52.784Z,99818.28
2022-08-26T14:57:56.820Z,99820.41
2022-08-26T15:00:58.275Z,99833.03
2022-08-26T15:04:05.670Z,99829.47
2022-08-26T15:07:07.744Z,99817.09
2022-08-26T15:10:15.968Z,99824.66
2022-08-26T15:13:17.424Z,99821.06
2022-08-26T15:16:19.070Z,99821.19
2022-08-26T15:19:22.545Z,99837.06
2022-08-26T15:22:24.214Z,99840.59
2022-08-26T15:25:31.024Z,99842.88
2022-08-26T15:28:32.665Z,99826.88
2022-08-26T15:31:34.407Z,99838.50
2022-08-26T15:34:36.093Z,99868.13
2022-08-26T15:37:38.828Z,99870.94
2022-08-26T15:40:40.503Z,99874.59
2022-08-26T15:43:42.126Z,99896.59
2022-08-26T15:46:44.242Z,99933.06
2022-08-26T15:49:45.863Z,99955.31
2022-08-26T15:52:47.800Z,99971.28
2022-08-26T15:55:49.996Z,99976.50
2022-08-26T15:58:51.809Z,99967.72
2022-08-26T16:01:59.375Z,100018.94
2022-08-26T16:05:00.849Z,100014.53
2022-08-26T16:08:03.465Z,100034.81
2022-08-26T16:11:05.808Z,100044.16
2022-08-26T16:14:07.744Z,100063.00
2022-08-26T16:17:09.197Z,100122.53
2022-08-26T16:20:10.826Z,100054.81
2022-08-26T16:23:12.230Z,100074.56
2022-08-26T16:26:20.446Z,100068.06
2022-08-26T16:29:21.873Z,100085.78
2022-08-26T16:32:23.280Z,100074.81
2022-08-26T16:35:25.601Z,100040.00
2022-08-26T16:38:27.089Z,100028.38
2022-08-26T16:41:30.404Z,100084.31
2022-08-26T16:44:44.127Z,100059.06
2022-08-26T16:47:46.013Z,100059.09
2022-08-26T16:50:47.473Z,100085.38
2022-08-26T16:53:50.412Z,100081.06
2022-08-26T16:56:51.837Z,100083.44
2022-08-26T16:59:53.277Z,100063.00
2022-08-26T17:02:56.213Z,100057.34
2022-08-26T17:05:57.673Z,100049.06
2022-08-26T17:08:59.086Z,100032.56
2022-08-26T17:12:00.546Z,100019.72
2022-08-26T17:15:03.664Z,100016.94
2022-08-26T17:18:06.585Z,100017.25
2022-08-26T17:21:12.268Z,100018.53
2022-08-26T17:24:14.399Z,100017.47
2022-08-26T17:27:15.827Z,100016.47
2022-08-26T17:30:17.921Z,100027.94
2022-08-26T17:33:24.677Z,100027.94
2022-08-26T17:36:28.127Z,100020.47
2022-08-26T17:39:29.862Z,100036.78
2022-08-26T17:42:31.789Z,100047.63
2022-08-26T17:45:33.549Z,100049.91
2022-08-26T17:48:36.462Z,100053.94
2022-08-26T17:51:37.946Z,100042.59
2022-08-26T17:54:39.603Z,100049.28
2022-08-26T17:57:42.310Z,100047.94
2022-08-26T18:00:47.468Z,100045.59
2022-08-26T18:03:49.590Z,100040.59
2022-08-26T18:06:51.056Z,100044.81
2022-08-26T18:09:52.500Z,100051.94
2022-08-26T18:12:54.345Z,100046.81
2022-08-26T18:15:55.897Z,100044.06
2022-08-26T18:18:58.341Z,100040.94
2022-08-26T18:21:59.829Z,100043.81
2022-08-26T18:25:01.424Z,100041.97
2022-08-26T18:28:03.073Z,100043.28
2022-08-26T18:31:07.466Z,100048.22
2022-08-26T18:34:12.782Z,100062.97
2022-08-26T18:37:14.592Z,100067.72
2022-08-26T18:40:17.366Z,100072.38
2022-08-26T18:43:18.805Z,100082.38
2022-08-26T18:46:24.780Z,100077.88
2022-08-26T18:49:26.591Z,100086.44
2022-08-26T18:52:28.161Z,100096.53
2022-08-26T18:55:29.652Z,100091.63
2022-08-26T18:58:31.108Z,100099.66
2022-08-26T19:01:34.719Z,100111.03
2022-08-26T19:04:38.431Z,100103.97
2022-08-26T19:07:39.843Z,100115.56
2022-08-26T19:10:41.724Z,100120.34
2022-08-26T19:13:44.124Z,100124.59
2022-08-26T19:16:47.845Z,100126.91
2022-08-26T19:19:49.615Z,100127.75
2022-08-26T19:22:51.081Z,100129.19
2022-08-26T19:25:53.170Z,100143.78
2022-08-26T19:28:54.795Z,100140.34
2022-08-26T19:31:56.565Z,100150.72
2022-08-26T19:34:58.010Z,100147.66
2022-08-26T19:37:59.811Z,100147.66
2022-08-26T19:41:01.256Z,100138.91
2022-08-26T19:44:04.405Z,100141.59
2022-08-26T19:47:08.884Z,100131.56
2022-08-26T19:50:12.745Z,100133.16
2022-08-26T19:53:15.294Z,100132.28
2022-08-26T19:56:17.432Z,100129.03
2022-08-26T19:59:18.988Z,100133.28
2022-08-26T20:02:20.575Z,100130.13
2022-08-26T20:05:23.775Z,100130.38
2022-08-26T20:08:25.375Z,100133.56
2022-08-26T20:11:27.121Z,100133.75
2022-08-26T20:14:29.854Z,100129.25
2022-08-26T20:17:32.298Z,100136.69
2022-08-26T20:20:52.183Z,100141.78
2022-08-26T20:24:00.514Z,100159.03
2022-08-26T20:27:07.307Z,100146.47
2022-08-26T20:30:10.267Z,100140.25
2022-08-26T20:33:11.692Z,100143.78
2022-08-26T20:36:15.015Z,100151.00
2022-08-26T20:39:20.755Z,100148.19
2022-08-26T20:42:22.201Z,100153.56
2022-08-26T20:45:24.090Z,100162.22
2022-08-26T20:48:25.526Z,100159.66
2022-08-26T20:51:27.308Z,100154.63
2022-08-26T20:54:29.501Z,100151.94
2022-08-26T20:57:30.914Z,100141.09
2022-08-26T21:00:32.366Z,100146.69
2022-08-26T21:03:33.921Z,100149.53
2022-08-26T21:06:36.247Z,100150.34
2022-08-26T21:09:37.715Z,100147.66
2022-08-26T21:12:39.828Z,100145.72
2022-08-26T21:15:41.265Z,100149.66
2022-08-26T21:18:42.706Z,100153.03
2022-08-26T21:21:44.894Z,100145.00
2022-08-26T21:24:46.498Z,100147.34
2022-08-26T21:27:47.972Z,100149.88
2022-08-26T21:30:49.416Z,100150.34
2022-08-26T21:33:51.543Z,100153.41
2022-08-26T21:36:52.958Z,100159.69
2022-08-26T21:39:56.759Z,100159.69
2022-08-26T21:42:58.200Z,100166.47
2022-08-26T21:46:15.076Z,100167.59
2022-08-26T21:49:16.697Z,100166.38
2022-08-26T21:52:18.229Z,100173.94
2022-08-26T21:55:19.669Z,100180.78
2022-08-26T21:58:21.114Z,100182.00
2022-08-26T22:01:25.197Z,100180.28
2022-08-26T22:04:27.583Z,100184.22
2022-08-26T22:07:29.165Z,100190.78
2022-08-26T22:10:30.573Z,100189.22
2022-08-26T22:13:34.501Z,100184.94
2022-08-26T22:16:36.210Z,100185.22
2022-08-26T22:19:39.134Z,100186.50
2022-08-26T22:22:47.948Z,100195.66
2022-08-26T22:25:50.139Z,100194.44
2022-08-26T22:28:52.593Z,100198.34
2022-08-26T22:32:01.788Z,100200.03
2022-08-26T22:35:03.917Z,100199.53
2022-08-26T22:38:25.785Z,100209.88
2022-08-26T22:41:27.254Z,100200.59
2022-08-26T22:44:28.789Z,100212.78
2022-08-26T22:47:30.271Z,100215.31
2022-08-26T22:50:32.074Z,100219.88
2022-08-26T22:53:35.217Z,100219.47
2022-08-26T22:56:38.729Z,100207.63
2022-08-26T22:59:40.797Z,100211.78
2022-08-26T23:02:43.881Z,100210.66
2022-08-26T23:05:45.770Z,100215.56
2022-08-26T23:08:47.424Z,100223.50
2022-08-26T23:11:49.281Z,100220.06
2022-08-26T23:14:50.704Z,100210.06
2022-08-26T23:17:58.852Z,100213.34
2022-08-26T23:21:00.885Z,100205.41
2022-08-26T23:24:02.522Z,100213.63
2022-08-26T23:27:04.652Z,100208.47
2022-08-26T23:30:09.742Z,100203.13
2022-08-26T23:33:11.168Z,100202.25
2022-08-26T23:36:17.048Z,100206.53
2022-08-26T23:39:20.053Z,100202.88
2022-08-26T23:42:22.752Z,100209.91
2022-08-26T23:45:26.146Z,100217.00
2022-08-26T23:48:27.609Z,100214.31
2022-08-26T23:51:47.548Z,100223.50
2022-08-26T23:54:49.749Z,100222.63
2022-08-26T23:57:51.156Z,100222.03
